Time;durP1;ratioP1;P1;durP2;ratioP2;P2;SDS_P1;SDS_P2;PMS_P1;PMS_P2;Temp;Humidity;BMP_temperature;BMP_pressure;BME280_temperature;BME280_humidity;BME280_pressure;Samples;Min_cycle;Max_cycle;Signal;HPM_P1;HPM_P2
2023/04/28 00:00:36;;;;;;;61.40;5.97;;;;;;;;;;5074365;28;20473;-68
2023/04/28 00:03:04;;;;;;;67.13;7.00;;;;;;;;;;5074659;28;20568;-68
2023/04/28 00:05:31;;;;;;;63.00;7.00;;;;;;;;;;5074508;28;20801;-70
2023/04/28 00:07:58;;;;;;;80.70;7.00;;;;;;;;;;5074438;28;20463;-69
2023/04/28 00:10:25;;;;;;;62.67;5.93;;;;;;;;;;5074153;28;20470;-70
2023/04/28 00:12:52;;;;;;;69.50;6.20;;;;;;;;;;5074797;28;20802;-68
2023/04/28 00:15:19;;;;;;;71.80;6.20;;;;;;;;;;5074531;28;20443;-69
2023/04/28 00:17:48;;;;;;;64.77;6.60;;;;;;;;;;5074411;28;20454;-69
2023/04/28 00:20:15;;;;;;;61.07;5.40;;;;;;;;;;5073717;28;21008;-69
2023/04/28 00:22:42;;;;;;;62.13;4.93;;;;;;;;;;5074088;28;20522;-68
2023/04/28 00:25:10;;;;;;;69.33;6.70;;;;;;;;;;5073978;28;20465;-69
2023/04/28 00:27:37;;;;;;;60.60;5.30;;;;;;;;;;5074006;28;20831;-69
2023/04/28 00:30:04;;;;;;;60.57;5.17;;;;;;;;;;5073664;28;21007;-69
2023/04/28 00:32:31;;;;;;;62.10;4.87;;;;;;;;;;5074171;28;20546;-69
2023/04/28 00:35:00;;;;;;;60.23;4.80;;;;;;;;;;5073975;28;20447;-70
2023/04/28 00:37:27;;;;;;;59.00;4.30;;;;;;;;;;5074467;28;20448;-69
2023/04/28 00:39:57;;;;;;;60.13;4.80;;;;;;;;;;5073407;28;20475;-69
2023/04/28 00:42:24;;;;;;;58.27;3.87;;;;;;;;;;5073941;28;20510;-68
2023/04/28 00:44:51;;;;;;;59.00;4.10;;;;;;;;;;5073927;28;20462;-69
2023/04/28 00:47:19;;;;;;;60.90;4.73;;;;;;;;;;5073810;28;20452;-68
2023/04/28 00:49:46;;;;;;;72.40;5.03;;;;;;;;;;5073396;28;20850;-69
2023/04/28 00:52:14;;;;;;;59.00;3.90;;;;;;;;;;5073510;28;20450;-70
2023/04/28 00:54:42;;;;;;;72.23;4.37;;;;;;;;;;5073539;28;20455;-69
2023/04/28 00:57:10;;;;;;;60.10;4.23;;;;;;;;;;5073635;28;20457;-69
2023/04/28 00:59:37;;;;;;;58.27;3.23;;;;;;;;;;5073200;28;20471;-69
2023/04/28 01:02:06;;;;;;;58.77;3.60;;;;;;;;;;5073476;28;20451;-69
2023/04/28 01:04:34;;;;;;;60.07;3.40;;;;;;;;;;5073548;28;20858;-69
2023/04/28 01:07:02;;;;;;;94.40;5.03;;;;;;;;;;5073203;28;20450;-69
2023/04/28 01:09:31;;;;;;;58.87;3.63;;;;;;;;;;5072888;28;20475;-70
2023/04/28 01:11:58;;;;;;;83.83;5.90;;;;;;;;;;5073412;28;20462;-70
2023/04/28 01:14:25;;;;;;;71.73;5.80;;;;;;;;;;5073158;28;20462;-69
2023/04/28 01:16:53;;;;;;;77.00;6.60;;;;;;;;;;5071819;28;20454;-69
2023/04/28 01:19:22;;;;;;;67.30;6.13;;;;;;;;;;5072637;28;20463;-70
2023/04/28 01:21:49;;;;;;;64.73;5.10;;;;;;;;;;5073004;28;20485;-70
2023/04/28 01:24:18;;;;;;;59.47;3.90;;;;;;;;;;5073031;28;20494;-70
2023/04/28 01:26:45;;;;;;;62.70;4.50;;;;;;;;;;5073206;28;20448;-69
2023/04/28 01:29:12;;;;;;;58.83;4.03;;;;;;;;;;5072332;28;20478;-70
2023/04/28 01:31:39;;;;;;;64.13;3.70;;;;;;;;;;5073025;28;20443;-69
2023/04/28 01:34:07;;;;;;;68.40;3.80;;;;;;;;;;5072735;28;20992;-69
2023/04/28 01:36:34;;;;;;;58.87;4.00;;;;;;;;;;5072850;28;20447;-70
2023/04/28 01:39:01;;;;;;;58.60;3.20;;;;;;;;;;5072395;28;20554;-69
2023/04/28 01:41:30;;;;;;;58.40;3.60;;;;;;;;;;5073271;28;20448;-69
2023/04/28 01:43:57;;;;;;;58.37;3.07;;;;;;;;;;5072728;28;20479;-69
2023/04/28 01:46:24;;;;;;;60.87;3.13;;;;;;;;;;5072837;28;20444;-69
2023/04/28 01:48:51;;;;;;;58.27;3.37;;;;;;;;;;5072037;28;20447;-69
2023/04/28 01:51:18;;;;;;;58.27;3.10;;;;;;;;;;5072434;28;20940;-69
2023/04/28 01:53:45;;;;;;;58.50;2.87;;;;;;;;;;5072475;28;20444;-69
2023/04/28 01:56:12;;;;;;;59.67;3.00;;;;;;;;;;5072266;28;20443;-69
2023/04/28 01:58:41;;;;;;;57.77;2.67;;;;;;;;;;5072094;28;20436;-70
2023/04/28 02:01:08;;;;;;;59.57;2.87;;;;;;;;;;5072427;28;20440;-70
2023/04/28 02:03:35;;;;;;;57.97;3.03;;;;;;;;;;5071420;28;20833;-69
2023/04/28 02:06:02;;;;;;;57.57;2.70;;;;;;;;;;5072299;28;20447;-69
2023/04/28 02:08:30;;;;;;;57.90;2.90;;;;;;;;;;5072059;28;20459;-69
2023/04/28 02:10:57;;;;;;;57.50;2.40;;;;;;;;;;5071923;28;20466;-69
2023/04/28 02:13:24;;;;;;;58.23;2.67;;;;;;;;;;5072367;28;20653;-70
2023/04/28 02:15:53;;;;;;;57.37;2.30;;;;;;;;;;5072433;28;20451;-70
2023/04/28 02:18:20;;;;;;;60.47;3.13;;;;;;;;;;5072091;28;20455;-70
2023/04/28 02:20:47;;;;;;;58.10;3.50;;;;;;;;;;5072057;28;20467;-70
2023/04/28 02:23:14;;;;;;;58.20;2.87;;;;;;;;;;5072485;28;20487;-70
2023/04/28 02:25:41;;;;;;;57.83;2.90;;;;;;;;;;5072183;28;20550;-67
2023/04/28 02:28:08;;;;;;;57.67;2.77;;;;;;;;;;5072006;28;20454;-68
2023/04/28 02:30:35;;;;;;;57.47;2.53;;;;;;;;;;5071431;28;20466;-68
2023/04/28 02:33:04;;;;;;;58.20;3.43;;;;;;;;;;5071924;28;20837;-69
2023/04/28 02:35:31;;;;;;;57.87;2.97;;;;;;;;;;5071862;28;20455;-68
2023/04/28 02:37:58;;;;;;;59.17;2.70;;;;;;;;;;5071569;28;20455;-68
2023/04/28 02:40:25;;;;;;;57.70;2.47;;;;;;;;;;5071628;28;20473;-68
2023/04/28 02:42:52;;;;;;;57.53;2.50;;;;;;;;;;5071811;28;20483;-68
2023/04/28 02:45:20;;;;;;;57.30;2.30;;;;;;;;;;5071716;28;20451;-68
2023/04/28 02:47:47;;;;;;;57.27;2.50;;;;;;;;;;5071575;28;20454;-67
2023/04/28 02:50:15;;;;;;;58.90;4.20;;;;;;;;;;5071308;28;20493;-68
2023/04/28 02:52:42;;;;;;;57.33;2.40;;;;;;;;;;5071629;28;20458;-68
2023/04/28 02:55:09;;;;;;;57.30;2.13;;;;;;;;;;5071811;28;20808;-68
2023/04/28 02:57:37;;;;;;;57.13;2.10;;;;;;;;;;5071747;28;20822;-68
2023/04/28 03:00:04;;;;;;;57.10;2.10;;;;;;;;;;5071240;28;20468;-68
2023/04/28 03:02:31;;;;;;;57.17;2.00;;;;;;;;;;5071528;28;20457;-68
2023/04/28 03:04:58;;;;;;;57.57;2.40;;;;;;;;;;5071602;28;20483;-68
2023/04/28 03:07:27;;;;;;;57.17;2.10;;;;;;;;;;5071461;28;20952;-68
2023/04/28 03:09:54;;;;;;;57.37;2.60;;;;;;;;;;5071267;28;20469;-68
2023/04/28 03:12:21;;;;;;;57.17;2.00;;;;;;;;;;5071500;28;20807;-69
2023/04/28 03:14:48;;;;;;;59.90;2.80;;;;;;;;;;5072564;28;20449;-69
2023/04/28 03:17:15;;;;;;;57.20;2.20;;;;;;;;;;5076052;28;20444;-68
2023/04/28 03:19:42;;;;;;;57.80;2.10;;;;;;;;;;5074801;28;20467;-69
2023/04/28 03:22:09;;;;;;;57.10;2.30;;;;;;;;;;5075492;28;20447;-69
2023/04/28 03:24:37;;;;;;;57.07;2.27;;;;;;;;;;5075073;28;21022;-68
2023/04/28 03:27:05;;;;;;;57.90;2.33;;;;;;;;;;5075298;28;20455;-68
2023/04/28 03:29:32;;;;;;;57.40;2.70;;;;;;;;;;5074758;28;20503;-69
2023/04/28 03:31:59;;;;;;;57.27;2.40;;;;;;;;;;5074917;28;20462;-68
2023/04/28 03:34:26;;;;;;;57.30;2.67;;;;;;;;;;5075019;28;20443;-69
2023/04/28 03:36:53;;;;;;;66.10;3.03;;;;;;;;;;5075305;28;20455;-69
2023/04/28 03:39:20;;;;;;;57.17;2.00;;;;;;;;;;5074706;28;20824;-69
2023/04/28 03:41:49;;;;;;;57.17;2.20;;;;;;;;;;5074931;28;20447;-68
2023/04/28 03:44:16;;;;;;;57.07;2.00;;;;;;;;;;5074823;28;20483;-68
2023/04/28 03:46:43;;;;;;;57.30;2.43;;;;;;;;;;5074708;28;20457;-68
2023/04/28 03:49:10;;;;;;;57.43;2.37;;;;;;;;;;5074471;28;20463;-69
2023/04/28 03:51:37;;;;;;;57.40;2.83;;;;;;;;;;5074955;28;20443;-69
2023/04/28 03:54:05;;;;;;;57.20;2.27;;;;;;;;;;5075063;28;20451;-69
2023/04/28 03:56:32;;;;;;;57.13;2.17;;;;;;;;;;5074952;28;20459;-69
2023/04/28 03:59:00;;;;;;;57.37;2.23;;;;;;;;;;5074024;28;20467;-69
2023/04/28 04:01:27;;;;;;;60.43;3.40;;;;;;;;;;5074613;28;20477;-69
2023/04/28 04:03:55;;;;;;;57.40;2.30;;;;;;;;;;5074711;28;20483;-69
2023/04/28 04:06:22;;;;;;;57.40;2.30;;;;;;;;;;5074977;28;20501;-69
2023/04/28 04:08:49;;;;;;;57.30;2.00;;;;;;;;;;5074132;28;20455;-69
2023/04/28 04:11:16;;;;;;;57.20;2.10;;;;;;;;;;5074415;28;20509;-69
2023/04/28 04:13:43;;;;;;;58.10;3.40;;;;;;;;;;5074862;28;20443;-69
2023/04/28 04:16:14;;;;;;;57.03;2.20;;;;;;;;;;5074229;28;20451;-69
2023/04/28 04:18:41;;;;;;;57.07;2.00;;;;;;;;;;5074032;28;20450;-69
2023/04/28 04:21:08;;;;;;;57.17;2.10;;;;;;;;;;5074008;28;20451;-68
2023/04/28 04:23:35;;;;;;;57.50;2.20;;;;;;;;;;5074041;28;20493;-68
2023/04/28 04:26:03;;;;;;;57.30;2.60;;;;;;;;;;5073247;28;20958;-69
2023/04/28 04:28:30;;;;;;;57.07;2.43;;;;;;;;;;5073894;28;20477;-68
2023/04/28 04:30:57;;;;;;;57.17;2.23;;;;;;;;;;5074049;28;20467;-68
2023/04/28 04:33:25;;;;;;;57.40;2.37;;;;;;;;;;5074197;28;20561;-69
2023/04/28 04:35:53;;;;;;;57.20;2.50;;;;;;;;;;5073961;28;20448;-68
2023/04/28 04:38:20;;;;;;;57.47;2.60;;;;;;;;;;5073798;28;20465;-69
2023/04/28 04:40:47;;;;;;;61.90;3.13;;;;;;;;;;5073490;28;20824;-69
2023/04/28 04:43:14;;;;;;;57.27;2.20;;;;;;;;;;5073770;28;20443;-69
2023/04/28 04:45:41;;;;;;;57.20;2.40;;;;;;;;;;5073904;28;20505;-68
2023/04/28 04:48:08;;;;;;;57.13;2.20;;;;;;;;;;5073711;28;20462;-69
2023/04/28 04:50:36;;;;;;;57.30;2.17;;;;;;;;;;5073378;28;20478;-69
2023/04/28 04:53:04;;;;;;;57.13;2.27;;;;;;;;;;5073703;28;20466;-69
2023/04/28 04:55:31;;;;;;;57.20;2.20;;;;;;;;;;5073387;28;20447;-69
2023/04/28 04:57:58;;;;;;;57.50;3.10;;;;;;;;;;5073426;28;20940;-69
2023/04/28 05:00:25;;;;;;;57.23;2.30;;;;;;;;;;5073363;28;20470;-69
2023/04/28 05:02:52;;;;;;;57.40;2.40;;;;;;;;;;5073514;28;20450;-69
2023/04/28 05:05:19;;;;;;;57.17;2.20;;;;;;;;;;5073401;28;20509;-68
2023/04/28 05:07:48;;;;;;;57.13;2.23;;;;;;;;;;5073382;28;20448;-69
2023/04/28 05:10:15;;;;;;;57.40;2.60;;;;;;;;;;5072736;28;20475;-69
2023/04/28 05:12:43;;;;;;;57.30;2.30;;;;;;;;;;5073546;28;20455;-68
2023/04/28 05:15:10;;;;;;;57.13;2.47;;;;;;;;;;5073089;28;20947;-68
2023/04/28 05:17:37;;;;;;;57.07;2.50;;;;;;;;;;5073314;28;20612;-69
2023/04/28 05:20:05;;;;;;;57.30;2.23;;;;;;;;;;5072762;28;20835;-69
2023/04/28 05:22:32;;;;;;;57.27;2.20;;;;;;;;;;5072689;28;20773;-68
2023/04/28 05:25:00;;;;;;;57.10;2.30;;;;;;;;;;5073063;28;20495;-69
2023/04/28 05:27:27;;;;;;;57.30;2.60;;;;;;;;;;5073286;28;20491;-69
2023/04/28 05:29:54;;;;;;;57.17;2.13;;;;;;;;;;5072459;28;20478;-69
2023/04/28 05:32:22;;;;;;;58.77;2.60;;;;;;;;;;5072976;28;20530;-70
2023/04/28 05:34:49;;;;;;;57.27;2.40;;;;;;;;;;5073351;28;20447;-69
2023/04/28 05:37:16;;;;;;;58.00;3.40;;;;;;;;;;5072696;28;20457;-69
2023/04/28 05:39:43;;;;;;;57.27;2.80;;;;;;;;;;5072507;28;20464;-69
2023/04/28 05:42:11;;;;;;;57.20;2.20;;;;;;;;;;5072909;28;20798;-69
2023/04/28 05:44:38;;;;;;;57.43;2.67;;;;;;;;;;5072086;28;21007;-69
2023/04/28 05:47:06;;;;;;;57.43;2.53;;;;;;;;;;5072623;28;20444;-69
2023/04/28 05:49:33;;;;;;;57.40;2.60;;;;;;;;;;5071912;28;20843;-68
2023/04/28 05:52:00;;;;;;;57.07;2.20;;;;;;;;;;5072384;28;20447;-69
2023/04/28 05:54:27;;;;;;;57.13;2.20;;;;;;;;;;5072413;28;20458;-69
2023/04/28 05:56:54;;;;;;;57.10;2.17;;;;;;;;;;5072599;28;20447;-69
2023/04/28 05:59:23;;;;;;;57.43;2.50;;;;;;;;;;5072097;28;20471;-69
2023/04/28 06:01:50;;;;;;;56.97;2.10;;;;;;;;;;5072160;28;20974;-69
2023/04/28 06:04:17;;;;;;;57.10;2.43;;;;;;;;;;5072118;28;21019;-69
2023/04/28 06:06:44;;;;;;;57.37;2.30;;;;;;;;;;5072582;28;20447;-69
2023/04/28 06:09:12;;;;;;;57.27;2.37;;;;;;;;;;5071906;28;21086;-69
2023/04/28 06:11:39;;;;;;;57.37;2.60;;;;;;;;;;5063321;28;21077;-70
2023/04/28 06:14:06;;;;;;;57.27;2.30;;;;;;;;;;5057716;28;20514;-71
2023/04/28 06:16:35;;;;;;;57.50;2.40;;;;;;;;;;5052257;28;20459;-71
2023/04/28 06:19:02;;;;;;;61.50;2.60;;;;;;;;;;5061095;28;20438;-71
2023/04/28 06:21:31;;;;;;;57.27;2.30;;;;;;;;;;5071990;28;20213;-69
2023/04/28 06:23:58;;;;;;;57.40;2.60;;;;;;;;;;5071685;28;20463;-69
2023/04/28 06:26:25;;;;;;;57.23;2.60;;;;;;;;;;5071951;28;20454;-69
2023/04/28 06:28:52;;;;;;;57.30;2.23;;;;;;;;;;5071484;28;20443;-70
2023/04/28 06:31:19;;;;;;;57.37;2.33;;;;;;;;;;5068522;28;20459;-69
2023/04/28 06:33:48;;;;;;;57.57;2.60;;;;;;;;;;5071731;28;20450;-69
2023/04/28 06:36:16;;;;;;;57.53;2.50;;;;;;;;;;5071855;28;20454;-69
2023/04/28 06:38:43;;;;;;;57.17;2.40;;;;;;;;;;5071156;28;20494;-69
2023/04/28 06:41:11;;;;;;;57.50;2.60;;;;;;;;;;5071634;28;20443;-69
2023/04/28 06:43:38;;;;;;;57.70;2.60;;;;;;;;;;5071728;28;20451;-68
2023/04/28 06:46:05;;;;;;;57.40;2.57;;;;;;;;;;5071305;28;20483;-69
2023/04/28 06:48:32;;;;;;;57.30;2.30;;;;;;;;;;5071456;28;20454;-68
2023/04/28 06:51:01;;;;;;;57.57;2.30;;;;;;;;;;5070886;28;20979;-69
2023/04/28 06:53:28;;;;;;;57.47;2.40;;;;;;;;;;5071470;28;20460;-69
2023/04/28 06:55:55;;;;;;;57.43;2.40;;;;;;;;;;5071533;28;20443;-69
2023/04/28 06:58:22;;;;;;;58.10;2.80;;;;;;;;;;5071348;28;20458;-68
2023/04/28 07:00:50;;;;;;;57.40;2.40;;;;;;;;;;5071421;28;20489;-68
2023/04/28 07:03:17;;;;;;;57.60;2.80;;;;;;;;;;5071832;28;20447;-69
2023/04/28 07:05:44;;;;;;;57.53;2.40;;;;;;;;;;5071602;28;20493;-70
2023/04/28 07:08:12;;;;;;;57.40;2.33;;;;;;;;;;5071596;28;20538;-69
2023/04/28 07:10:39;;;;;;;57.60;2.60;;;;;;;;;;5071234;28;20471;-69
2023/04/28 07:13:07;;;;;;;57.37;2.30;;;;;;;;;;5071439;28;20447;-69
2023/04/28 07:15:34;;;;;;;57.47;2.37;;;;;;;;;;5071332;28;20958;-70
2023/04/28 07:18:01;;;;;;;57.43;2.50;;;;;;;;;;5071566;28;20447;-68
2023/04/28 07:20:28;;;;;;;57.50;2.47;;;;;;;;;;5071297;28;20877;-69
2023/04/28 07:22:55;;;;;;;57.17;2.50;;;;;;;;;;5071452;28;20440;-68
2023/04/28 07:25:23;;;;;;;57.37;2.67;;;;;;;;;;5071130;28;20486;-69
2023/04/28 07:27:51;;;;;;;57.47;2.40;;;;;;;;;;5071276;28;20448;-69
2023/04/28 07:30:18;;;;;;;57.40;2.37;;;;;;;;;;5071159;28;20464;-69
2023/04/28 07:32:45;;;;;;;57.40;2.33;;;;;;;;;;5071462;28;20469;-69
2023/04/28 07:35:12;;;;;;;58.20;3.13;;;;;;;;;;5071268;28;20454;-69
2023/04/28 07:37:39;;;;;;;57.30;2.70;;;;;;;;;;5071476;28;20805;-69
2023/04/28 07:40:07;;;;;;;57.07;2.43;;;;;;;;;;5070847;28;20971;-69
2023/04/28 07:42:35;;;;;;;57.37;2.40;;;;;;;;;;5071327;28;20872;-69
2023/04/28 07:45:03;;;;;;;57.17;2.33;;;;;;;;;;5071030;28;20489;-69
2023/04/28 07:47:30;;;;;;;57.70;2.80;;;;;;;;;;5071293;28;20448;-69
2023/04/28 07:49:59;;;;;;;57.27;2.50;;;;;;;;;;5070835;28;20473;-69
2023/04/28 07:52:26;;;;;;;57.60;3.30;;;;;;;;;;5071042;28;20447;-69
2023/04/28 07:54:53;;;;;;;57.40;2.60;;;;;;;;;;5070877;28;20462;-69
2023/04/28 07:57:20;;;;;;;57.17;2.30;;;;;;;;;;5071233;28;20455;-69
2023/04/28 07:59:49;;;;;;;57.27;2.57;;;;;;;;;;5070901;28;20493;-69
2023/04/28 08:02:18;;;;;;;57.27;2.23;;;;;;;;;;5072822;28;20449;-69
2023/04/28 08:04:45;;;;;;;57.37;2.40;;;;;;;;;;5074596;28;20501;-69
2023/04/28 08:07:12;;;;;;;57.23;2.60;;;;;;;;;;5074409;28;20454;-69
2023/04/28 08:09:41;;;;;;;57.30;2.13;;;;;;;;;;5074383;28;20478;-69
2023/04/28 08:12:08;;;;;;;57.40;2.30;;;;;;;;;;5074650;28;20478;-71
2023/04/28 08:14:36;;;;;;;58.37;3.47;;;;;;;;;;5074529;28;20447;-69
2023/04/28 08:17:04;;;;;;;57.20;2.20;;;;;;;;;;5074444;28;20581;-69
2023/04/28 08:19:32;;;;;;;57.40;2.70;;;;;;;;;;5073829;28;20468;-69
2023/04/28 08:22:04;;;;;;;57.10;2.40;;;;;;;;;;5074308;28;20932;-70
2023/04/28 08:24:33;;;;;;;57.07;2.20;;;;;;;;;;5073936;28;20458;-68
2023/04/28 08:27:01;;;;;;;57.57;2.57;;;;;;;;;;5074408;28;20454;-69
2023/04/28 08:29:28;;;;;;;57.30;2.33;;;;;;;;;;5073789;28;20483;-68
2023/04/28 08:31:56;;;;;;;57.47;2.40;;;;;;;;;;5074161;28;20447;-69
2023/04/28 08:34:24;;;;;;;57.43;2.37;;;;;;;;;;5074242;28;20458;-69
2023/04/28 08:36:52;;;;;;;57.33;2.40;;;;;;;;;;5074109;28;20447;-69
2023/04/28 08:39:21;;;;;;;57.37;2.40;;;;;;;;;;5073634;28;20467;-68
2023/04/28 08:41:48;;;;;;;57.17;2.80;;;;;;;;;;5073977;28;20541;-69
2023/04/28 08:44:16;;;;;;;57.03;2.40;;;;;;;;;;5073483;28;20971;-71
2023/04/28 08:46:44;;;;;;;57.30;2.40;;;;;;;;;;5053872;28;20538;-69
2023/04/28 08:49:13;;;;;;;57.30;3.03;;;;;;;;;;5053539;28;21064;-69
2023/04/28 08:51:46;;;;;;;62.77;4.83;;;;;;;;;;5053700;28;20454;-69
2023/04/28 08:54:15;;;;;;;59.37;3.60;;;;;;;;;;5053736;28;20498;-72
2023/04/28 08:56:44;;;;;;;57.40;2.40;;;;;;;;;;5053810;28;20448;-71
2023/04/28 08:59:12;;;;;;;57.37;2.70;;;;;;;;;;5053110;28;20511;-69
2023/04/28 09:01:39;;;;;;;57.13;2.30;;;;;;;;;;5053678;28;20444;-70
2023/04/28 09:04:06;;;;;;;59.13;2.50;;;;;;;;;;5053884;28;20484;-69
2023/04/28 09:06:35;;;;;;;57.17;2.27;;;;;;;;;;5053334;28;21016;-69
2023/04/28 09:09:23;;;;;;;57.30;2.50;;;;;;;;;;5053226;28;20494;-69
2023/04/28 09:11:55;;;;;;;57.50;2.30;;;;;;;;;;5053189;28;20844;-71
2023/04/28 09:14:22;;;;;;;58.03;3.57;;;;;;;;;;5052950;28;20444;-69
2023/04/28 09:16:50;;;;;;;58.87;2.60;;;;;;;;;;5053486;28;20818;-70
2023/04/28 09:19:17;;;;;;;57.87;2.50;;;;;;;;;;5052728;28;20476;-70
2023/04/28 09:21:49;;;;;;;57.40;2.67;;;;;;;;;;5053129;28;20451;-69
2023/04/28 09:24:33;;;;;;;57.47;2.73;;;;;;;;;;5052996;28;20460;-71
2023/04/28 09:27:01;;;;;;;57.57;2.90;;;;;;;;;;5053407;28;20488;-71
2023/04/28 09:29:28;;;;;;;57.47;2.70;;;;;;;;;;5052712;28;20564;-71
2023/04/28 09:31:55;;;;;;;57.27;2.33;;;;;;;;;;5053052;28;20531;-72
2023/04/28 09:34:22;;;;;;;57.27;2.40;;;;;;;;;;5052914;28;20451;-71
2023/04/28 09:36:50;;;;;;;57.27;2.40;;;;;;;;;;5052748;28;20810;-71
2023/04/28 09:39:28;;;;;;;59.70;2.80;;;;;;;;;;5052636;28;21001;-71
2023/04/28 09:42:02;;;;;;;57.80;2.57;;;;;;;;;;5053010;28;20949;-72
2023/04/28 09:44:29;;;;;;;57.33;2.70;;;;;;;;;;5052880;28;20456;-71
2023/04/28 09:46:56;;;;;;;58.23;2.57;;;;;;;;;;5052569;28;20488;-70
2023/04/28 09:49:23;;;;;;;57.13;2.33;;;;;;;;;;5052091;28;20472;-72
2023/04/28 09:51:50;;;;;;;57.27;2.60;;;;;;;;;;5052543;28;20964;-72
2023/04/28 09:54:18;;;;;;;57.60;2.60;;;;;;;;;;5052619;28;20455;-71
2023/04/28 09:56:47;;;;;;;57.03;2.37;;;;;;;;;;5052590;28;20793;-71
2023/04/28 09:59:15;;;;;;;57.50;2.40;;;;;;;;;;5052574;28;20999;-70
2023/04/28 10:01:43;;;;;;;58.73;2.70;;;;;;;;;;5052316;28;20818;-70
2023/04/28 10:04:11;;;;;;;57.27;2.40;;;;;;;;;;5052664;28;20448;-72
2023/04/28 10:06:39;;;;;;;57.40;2.30;;;;;;;;;;5052560;28;21171;-72
2023/04/28 10:09:06;;;;;;;57.17;2.40;;;;;;;;;;5052038;28;20476;-72
2023/04/28 10:11:33;;;;;;;57.07;2.30;;;;;;;;;;5052225;28;20453;-70
2023/04/28 10:14:01;;;;;;;57.17;2.30;;;;;;;;;;5052222;28;20471;-72
2023/04/28 10:16:31;;;;;;;57.27;2.43;;;;;;;;;;5052076;28;20456;-71
2023/04/28 10:18:58;;;;;;;57.57;2.70;;;;;;;;;;5052211;28;20444;-71
2023/04/28 10:21:26;;;;;;;57.00;2.27;;;;;;;;;;5051971;28;20452;-69
2023/04/28 10:23:58;;;;;;;57.80;2.60;;;;;;;;;;5051565;28;20464;-69
2023/04/28 10:26:35;;;;;;;57.07;2.27;;;;;;;;;;5052243;28;20492;-70
2023/04/28 10:29:03;;;;;;;57.30;2.50;;;;;;;;;;5051563;28;20478;-69
2023/04/28 10:31:32;;;;;;;57.37;2.60;;;;;;;;;;5052047;28;20458;-70
2023/04/28 10:34:19;;;;;;;57.27;2.27;;;;;;;;;;5052013;28;20510;-69
2023/04/28 10:36:51;;;;;;;57.27;2.30;;;;;;;;;;5051617;28;20451;-68
2023/04/28 10:39:18;;;;;;;57.27;2.30;;;;;;;;;;5051452;28;20476;-69
2023/04/28 10:41:46;;;;;;;57.07;2.30;;;;;;;;;;5051698;28;20444;-69
2023/04/28 10:44:32;;;;;;;57.60;2.80;;;;;;;;;;5051915;28;20825;-69
2023/04/28 10:47:03;;;;;;;57.33;2.50;;;;;;;;;;5051612;28;20486;-69
2023/04/28 10:49:45;;;;;;;57.50;2.70;;;;;;;;;;5051208;28;20472;-71
2023/04/28 10:52:27;;;;;;;57.07;2.23;;;;;;;;;;5051580;28;20455;-71
2023/04/28 10:55:09;;;;;;;57.10;2.50;;;;;;;;;;5051533;28;20448;-70
2023/04/28 10:57:36;;;;;;;57.00;2.10;;;;;;;;;;5051494;28;20444;-71
2023/04/28 11:00:18;;;;;;;57.33;2.60;;;;;;;;;;5051156;28;20526;-70
2023/04/28 11:02:48;;;;;;;57.70;3.67;;;;;;;;;;5051424;28;20821;-70
2023/04/28 11:05:17;;;;;;;56.93;2.30;;;;;;;;;;5051446;28;20466;-71
2023/04/28 11:07:59;;;;;;;56.77;2.30;;;;;;;;;;5051570;28;20444;-71
2023/04/28 11:10:26;;;;;;;56.97;2.07;;;;;;;;;;5050961;28;20833;-70
2023/04/28 11:13:12;;;;;;;57.27;2.33;;;;;;;;;;5051660;28;20444;-70
2023/04/28 11:15:39;;;;;;;56.97;2.10;;;;;;;;;;5051656;28;20447;-71
2023/04/28 11:18:12;;;;;;;57.47;2.70;;;;;;;;;;5051499;28;20539;-70
2023/04/28 11:20:39;;;;;;;57.40;2.30;;;;;;;;;;5051195;28;21000;-70
2023/04/28 11:23:07;;;;;;;57.20;2.30;;;;;;;;;;5051579;28;20811;-70
2023/04/28 11:25:49;;;;;;;58.30;2.27;;;;;;;;;;5051376;28;20953;-70
2023/04/28 11:28:17;;;;;;;57.40;2.37;;;;;;;;;;5051231;28;20823;-71
2023/04/28 11:30:44;;;;;;;57.03;2.10;;;;;;;;;;5051200;28;20977;-71
2023/04/28 11:33:13;;;;;;;57.17;2.40;;;;;;;;;;5051416;28;20645;-71
2023/04/28 11:35:43;;;;;;;57.07;2.10;;;;;;;;;;5052148;28;20462;-70
2023/04/28 11:38:10;;;;;;;57.03;2.23;;;;;;;;;;5055315;28;20454;-70
2023/04/28 11:40:37;;;;;;;56.97;2.00;;;;;;;;;;5054892;28;21009;-71
2023/04/28 11:43:05;;;;;;;56.93;2.10;;;;;;;;;;5055166;28;20447;-70
2023/04/28 11:45:32;;;;;;;57.17;2.20;;;;;;;;;;5054994;28;20460;-71
2023/04/28 11:48:04;;;;;;;57.13;2.00;;;;;;;;;;5054775;28;20542;-71
2023/04/28 11:50:39;;;;;;;56.97;2.20;;;;;;;;;;5054785;28;20472;-71
2023/04/28 11:53:06;;;;;;;56.77;1.90;;;;;;;;;;5055020;28;20451;-70
2023/04/28 11:55:33;;;;;;;57.00;2.17;;;;;;;;;;5055093;28;20448;-71
2023/04/28 11:58:21;;;;;;;57.10;2.10;;;;;;;;;;5054688;28;20444;-70
2023/04/28 12:01:03;;;;;;;56.97;2.00;;;;;;;;;;5054624;28;20511;-70
2023/04/28 12:03:30;;;;;;;56.77;2.03;;;;;;;;;;5054455;28;20447;-71
2023/04/28 12:05:58;;;;;;;57.47;2.57;;;;;;;;;;5054610;28;20545;-70
2023/04/28 12:08:28;;;;;;;57.30;2.20;;;;;;;;;;5054498;28;20444;-71
2023/04/28 12:11:08;;;;;;;57.17;2.30;;;;;;;;;;5054221;28;20552;-70
2023/04/28 12:13:37;;;;;;;57.27;2.30;;;;;;;;;;5054623;28;20452;-71
2023/04/28 12:16:04;;;;;;;56.67;2.27;;;;;;;;;;5054609;28;20820;-71
2023/04/28 12:18:32;;;;;;;57.20;2.10;;;;;;;;;;5054018;28;20984;-68
2023/04/28 12:21:00;;;;;;;57.03;2.50;;;;;;;;;;5054121;28;20475;-70
2023/04/28 12:23:31;;;;;;;57.40;2.17;;;;;;;;;;5053975;28;20948;-70
2023/04/28 12:25:59;;;;;;;57.17;2.40;;;;;;;;;;5054311;28;20903;-70
2023/04/28 12:28:37;;;;;;;57.40;2.50;;;;;;;;;;5053987;28;20467;-70
2023/04/28 12:31:05;;;;;;;57.17;2.13;;;;;;;;;;5054077;28;20472;-70
2023/04/28 12:33:36;;;;;;;57.37;2.20;;;;;;;;;;5054361;28;20511;-70
2023/04/28 12:36:06;;;;;;;57.30;2.20;;;;;;;;;;5053994;28;20462;-70
2023/04/28 12:38:33;;;;;;;57.37;2.33;;;;;;;;;;5053736;28;20452;-70
2023/04/28 12:41:00;;;;;;;57.33;2.20;;;;;;;;;;5054057;28;20851;-70
2023/04/28 12:43:28;;;;;;;57.07;2.20;;;;;;;;;;5054114;28;20452;-70
2023/04/28 12:45:55;;;;;;;57.33;2.33;;;;;;;;;;5053889;28;20971;-70
2023/04/28 12:48:23;;;;;;;57.27;2.50;;;;;;;;;;5052951;28;20502;-70
2023/04/28 12:50:51;;;;;;;57.60;2.30;;;;;;;;;;5053464;28;20559;-70
2023/04/28 12:53:19;;;;;;;57.43;2.47;;;;;;;;;;5061213;28;20451;-69
2023/04/28 12:55:46;;;;;;;57.27;2.30;;;;;;;;;;5073610;28;20449;-70
2023/04/28 12:58:13;;;;;;;57.40;2.30;;;;;;;;;;5072640;28;20448;-70
2023/04/28 13:00:41;;;;;;;57.17;2.30;;;;;;;;;;5072537;28;20482;-70
2023/04/28 13:03:08;;;;;;;57.27;2.30;;;;;;;;;;5072959;28;20940;-70
2023/04/28 13:05:35;;;;;;;57.23;2.33;;;;;;;;;;5072552;28;20450;-70
2023/04/28 13:08:03;;;;;;;57.17;2.33;;;;;;;;;;5073298;28;20543;-70
2023/04/28 13:10:31;;;;;;;57.20;2.40;;;;;;;;;;5072394;28;20563;-70
2023/04/28 13:12:59;;;;;;;57.27;2.30;;;;;;;;;;5072964;28;20456;-70
2023/04/28 13:15:26;;;;;;;57.80;2.40;;;;;;;;;;5072379;28;20501;-71
2023/04/28 13:17:53;;;;;;;57.23;2.30;;;;;;;;;;5072906;28;20888;-70
2023/04/28 13:20:20;;;;;;;57.03;2.07;;;;;;;;;;5072128;28;20467;-70
2023/04/28 13:22:47;;;;;;;56.93;2.10;;;;;;;;;;5072918;28;20443;-70
2023/04/28 13:25:14;;;;;;;57.30;2.10;;;;;;;;;;5072565;28;20831;-71
2023/04/28 13:27:43;;;;;;;56.77;2.03;;;;;;;;;;5072962;28;21014;-70
2023/04/28 13:30:10;;;;;;;57.00;2.10;;;;;;;;;;5072253;28;20463;-70
2023/04/28 13:32:38;;;;;;;57.17;2.20;;;;;;;;;;5070413;28;20526;-71
2023/04/28 13:35:05;;;;;;;56.83;2.00;;;;;;;;;;5072708;28;20444;-70
2023/04/28 13:37:32;;;;;;;56.57;2.17;;;;;;;;;;5072423;28;20440;-71
2023/04/28 13:40:02;;;;;;;56.77;2.03;;;;;;;;;;5072434;28;20471;-70
2023/04/28 13:42:29;;;;;;;57.07;2.07;;;;;;;;;;5071999;28;20451;-70
2023/04/28 13:44:58;;;;;;;57.07;2.30;;;;;;;;;;5072608;28;20538;-70
2023/04/28 13:47:25;;;;;;;56.83;2.00;;;;;;;;;;5072244;28;20509;-70
2023/04/28 13:49:52;;;;;;;57.20;2.20;;;;;;;;;;5072210;28;20478;-70
2023/04/28 13:52:21;;;;;;;57.30;2.30;;;;;;;;;;5072302;28;20458;-70
2023/04/28 13:54:48;;;;;;;57.40;2.63;;;;;;;;;;5072324;28;20505;-70
2023/04/28 13:57:15;;;;;;;56.87;2.03;;;;;;;;;;5072083;28;20902;-70
2023/04/28 13:59:42;;;;;;;56.87;2.20;;;;;;;;;;5071612;28;21014;-70
2023/04/28 14:02:11;;;;;;;56.80;2.07;;;;;;;;;;5072149;28;20451;-70
2023/04/28 14:04:38;;;;;;;57.40;2.40;;;;;;;;;;5070877;28;20480;-70
2023/04/28 14:07:05;;;;;;;58.00;3.03;;;;;;;;;;5072015;28;20490;-70
2023/04/28 14:09:32;;;;;;;56.97;2.10;;;;;;;;;;5071395;28;20498;-70
2023/04/28 14:11:59;;;;;;;57.10;2.20;;;;;;;;;;5072070;28;20443;-70
2023/04/28 14:14:26;;;;;;;57.07;2.13;;;;;;;;;;5071840;28;20454;-70
2023/04/28 14:16:53;;;;;;;57.37;2.20;;;;;;;;;;5071848;28;20821;-70
2023/04/28 14:19:23;;;;;;;59.20;2.33;;;;;;;;;;5071564;28;20474;-70
2023/04/28 14:21:50;;;;;;;57.17;2.30;;;;;;;;;;5071566;28;20518;-71
2023/04/28 14:24:17;;;;;;;58.47;3.07;;;;;;;;;;5071540;28;20463;-70
2023/04/28 14:26:45;;;;;;;57.03;2.00;;;;;;;;;;5071796;28;20541;-69
2023/04/28 14:29:13;;;;;;;57.10;2.20;;;;;;;;;;5071407;28;20924;-70
2023/04/28 14:31:40;;;;;;;57.23;2.40;;;;;;;;;;5071775;28;20538;-70
2023/04/28 14:34:08;;;;;;;57.07;2.50;;;;;;;;;;5069350;28;20450;-70
2023/04/28 14:36:37;;;;;;;57.27;2.20;;;;;;;;;;5071646;28;20443;-70